createdAt,value
2023-01-29T00:03:47.140Z,99891.56
2023-01-29T00:08:50.389Z,99890.09
2023-01-29T00:13:53.783Z,99895.41
2023-01-29T00:18:56.639Z,99899.88
2023-01-29T00:24:00.178Z,99892.22
2023-01-29T00:29:03.086Z,99876.66
2023-01-29T00:34:06.114Z,99883.00
2023-01-29T00:39:11.206Z,99880.63
2023-01-29T00:44:32.226Z,99885.38
2023-01-29T00:49:35.441Z,99883.63
2023-01-29T00:54:38.256Z,99885.38
2023-01-29T00:59:41.132Z,99895.03
2023-01-29T01:04:43.806Z,99884.00
2023-01-29T01:10:04.892Z,99903.50
2023-01-29T01:15:07.929Z,99890.97
2023-01-29T01:20:12.981Z,99880.91
2023-01-29T01:25:16.534Z,99854.09
2023-01-29T01:30:19.352Z,99883.84
2023-01-29T01:35:22.250Z,99878.63
2023-01-29T01:40:26.315Z,99897.41
2023-01-29T01:45:34.991Z,99881.63
2023-01-29T01:50:39.176Z,99886.19
2023-01-29T01:55:53.285Z,99872.69
2023-01-29T02:00:56.745Z,99898.50
2023-01-29T02:06:18.939Z,99914.59
2023-01-29T02:11:21.763Z,99896.75
2023-01-29T02:16:24.878Z,99911.50
2023-01-29T02:22:06.193Z,99897.06
2023-01-29T02:27:31.756Z,99905.19
2023-01-29T02:33:01.131Z,99897.41
2023-01-29T02:38:22.100Z,99911.69
2023-01-29T02:43:56.396Z,99885.56
2023-01-29T02:49:13.645Z,99897.50
2023-01-29T02:54:24.466Z,99902.88
2023-01-29T02:59:54.458Z,99905.25
2023-01-29T03:05:01.593Z,99906.59
2023-01-29T03:10:13.380Z,99901.28
2023-01-29T03:15:26.968Z,99889.34
2023-01-29T03:20:53.817Z,99890.75
2023-01-29T03:26:18.482Z,99894.22
2023-01-29T03:31:40.086Z,99897.09
2023-01-29T03:36:50.437Z,99896.47
2023-01-29T03:42:01.557Z,99898.09
2023-01-29T03:47:27.968Z,99899.09
2023-01-29T03:52:50.202Z,99903.06
2023-01-29T03:58:05.219Z,99922.38
2023-01-29T04:03:25.478Z,99924.44
2023-01-29T04:08:31.730Z,99903.06
2023-01-29T04:13:36.900Z,99925.22
2023-01-29T04:18:39.911Z,99890.19
2023-01-29T04:23:44.612Z,99914.72
2023-01-29T04:29:30.546Z,99921.81
2023-01-29T04:35:06.732Z,99927.03
2023-01-29T04:40:24.403Z,99933.88
2023-01-29T04:45:27.099Z,99952.88
2023-01-29T04:50:36.918Z,99943.81
2023-01-29T04:55:41.406Z,99952.88
2023-01-29T05:00:44.551Z,99950.78
2023-01-29T05:05:49.100Z,99962.72
2023-01-29T05:10:53.370Z,99957.13
2023-01-29T05:16:42.250Z,99961.59
2023-01-29T05:21:49.861Z,99968.09
2023-01-29T05:27:12.447Z,99963.88
2023-01-29T05:32:16.377Z,99960.78
2023-01-29T05:37:19.132Z,99959.38
2023-01-29T05:42:22.099Z,99964.84
2023-01-29T05:47:24.780Z,99979.78
2023-01-29T05:52:27.801Z,99972.94
2023-01-29T05:57:30.558Z,99974.56
2023-01-29T06:02:33.458Z,99973.72
2023-01-29T06:07:36.551Z,99977.69
2023-01-29T06:12:39.733Z,99995.00
2023-01-29T06:17:43.242Z,99998.97
2023-01-29T06:22:45.918Z,100002.19
2023-01-29T06:27:51.426Z,100002.66
2023-01-29T06:32:59.097Z,100005.69
2023-01-29T06:38:01.999Z,100002.66
2023-01-29T06:43:04.761Z,100003.28
2023-01-29T06:48:07.454Z,100009.75
2023-01-29T06:53:10.184Z,100009.53
2023-01-29T06:58:13.251Z,100020.50
2023-01-29T07:03:15.972Z,100028.66
2023-01-29T07:08:19.004Z,100030.91
2023-01-29T07:13:21.751Z,100031.41
2023-01-29T07:18:24.433Z,100032.44
2023-01-29T07:23:27.170Z,100034.41
2023-01-29T07:28:30.216Z,100025.34
2023-01-29T07:33:33.210Z,100023.78
2023-01-29T07:38:35.931Z,100036.94
2023-01-29T07:43:38.907Z,100043.25
2023-01-29T07:48:41.609Z,100016.59
2023-01-29T07:53:45.416Z,100044.84
2023-01-29T07:58:48.088Z,100046.44
2023-01-29T08:03:51.524Z,100033.16
2023-01-29T08:08:56.109Z,100047.72
2023-01-29T08:13:58.624Z,100044.75
2023-01-29T08:19:02.523Z,100038.03
2023-01-29T08:24:05.520Z,100048.75
2023-01-29T08:29:08.329Z,100050.59
2023-01-29T08:34:11.047Z,100065.50
2023-01-29T08:39:13.886Z,100061.25
2023-01-29T08:44:16.651Z,100061.34
2023-01-29T08:49:19.273Z,100073.34
2023-01-29T08:54:21.954Z,100047.78
2023-01-29T08:59:24.715Z,100075.31
2023-01-29T09:04:27.428Z,100075.91
2023-01-29T09:09:30.199Z,100067.25
2023-01-29T09:14:33.284Z,100080.22
2023-01-29T09:19:36.174Z,100079.34
2023-01-29T09:24:38.996Z,100083.09
2023-01-29T09:29:41.689Z,100084.56
2023-01-29T09:34:44.478Z,100079.47
2023-01-29T09:39:47.364Z,100094.50
2023-01-29T09:45:25.134Z,100077.19
2023-01-29T09:50:35.723Z,100108.81
2023-01-29T09:55:43.203Z,100099.69
2023-01-29T10:01:10.620Z,100122.03
2023-01-29T10:06:16.083Z,100114.69
2023-01-29T10:11:47.916Z,100117.03
2023-01-29T10:17:29.143Z,100125.59
2023-01-29T10:22:53.044Z,100117.59
2023-01-29T10:27:58.111Z,100121.53
2023-01-29T10:33:04.563Z,100130.50
2023-01-29T10:38:35.212Z,100135.06
2023-01-29T10:43:59.863Z,100132.75
2023-01-29T10:49:21.330Z,100134.81
2023-01-29T10:54:46.093Z,100147.53
2023-01-29T11:00:14.017Z,100149.31
2023-01-29T11:05:27.842Z,100157.94
2023-01-29T11:10:33.083Z,100171.34
2023-01-29T11:15:35.725Z,100163.50
2023-01-29T11:20:38.733Z,100161.00
2023-01-29T11:25:53.025Z,100140.19
2023-01-29T11:30:56.058Z,100177.22
2023-01-29T11:35:59.436Z,100185.53
2023-01-29T11:41:18.898Z,100191.66
2023-01-29T11:46:21.657Z,100207.72
2023-01-29T11:51:27.266Z,100205.25
2023-01-29T11:56:42.457Z,100209.94
2023-01-29T12:01:45.237Z,100207.59
2023-01-29T12:06:52.362Z,100215.34
2023-01-29T12:11:55.109Z,100187.50
2023-01-29T12:17:08.275Z,100213.88
2023-01-29T12:22:18.215Z,100213.72
2023-01-29T12:27:56.761Z,100208.94
2023-01-29T12:33:28.503Z,100229.91
2023-01-29T12:38:31.272Z,100233.84
2023-01-29T12:43:47.685Z,100242.03
2023-01-29T12:48:51.316Z,100258.34
2023-01-29T12:54:09.862Z,100264.16
2023-01-29T12:59:32.471Z,100254.09
2023-01-29T13:04:45.956Z,100263.16
2023-01-29T13:09:51.688Z,100242.00
2023-01-29T13:14:58.344Z,100246.66
2023-01-29T13:20:18.955Z,100261.69
2023-01-29T13:25:22.046Z,100251.19
2023-01-29T13:30:28.821Z,100253.66
2023-01-29T13:35:31.912Z,100253.66
2023-01-29T13:40:38.587Z,100267.94
2023-01-29T13:45:45.035Z,100258.31
2023-01-29T13:50:48.370Z,100288.94
2023-01-29T13:55:51.316Z,100287.47
2023-01-29T14:00:54.413Z,100279.63
2023-01-29T14:06:01.480Z,100293.59
2023-01-29T14:11:16.235Z,100288.22
2023-01-29T14:16:18.962Z,100286.75
2023-01-29T14:21:28.725Z,100295.34
2023-01-29T14:26:31.523Z,100307.88
2023-01-29T14:31:42.026Z,100299.69
2023-01-29T14:36:46.145Z,100262.19
2023-01-29T14:41:50.545Z,100304.34
2023-01-29T14:46:53.341Z,100298.22
2023-01-29T14:51:57.334Z,100297.59
2023-01-29T14:57:03.487Z,100308.41
2023-01-29T15:02:18.102Z,100308.66
2023-01-29T15:07:44.941Z,100314.19
2023-01-29T15:13:09.054Z,100326.72
2023-01-29T15:18:27.764Z,100327.84
2023-01-29T15:23:31.395Z,100339.78
2023-01-29T15:28:35.682Z,100329.59
2023-01-29T15:33:41.670Z,100336.28
2023-01-29T15:38:44.404Z,100347.97
2023-01-29T15:43:50.496Z,100358.72
2023-01-29T15:48:55.322Z,100348.81
2023-01-29T15:54:06.428Z,100369.19
2023-01-29T15:59:16.868Z,100364.09
2023-01-29T16:04:31.417Z,100368.06
2023-01-29T16:09:34.218Z,100333.47
2023-01-29T16:14:37.046Z,100375.03
2023-01-29T16:19:39.713Z,100360.69
2023-01-29T16:24:42.694Z,100363.78
2023-01-29T16:29:45.445Z,100370.38
2023-01-29T16:34:49.544Z,100362.06
2023-01-29T16:39:55.333Z,100366.59
2023-01-29T16:44:59.542Z,100359.59
2023-01-29T16:50:18.847Z,100376.22
2023-01-29T16:55:23.378Z,100368.94
2023-01-29T17:00:28.407Z,100322.53
2023-01-29T17:05:32.538Z,100362.09
2023-01-29T17:10:36.320Z,100370.25
2023-01-29T17:15:43.459Z,100376.69
2023-01-29T17:20:46.398Z,100375.50
2023-01-29T17:25:49.556Z,100374.03
2023-01-29T17:31:05.259Z,100383.53
2023-01-29T17:36:13.704Z,100393.91
2023-01-29T17:41:23.477Z,100389.81
2023-01-29T17:46:26.199Z,100368.63
2023-01-29T17:51:28.908Z,100417.97
2023-01-29T17:56:31.752Z,100367.06
2023-01-29T18:01:34.629Z,100393.50
2023-01-29T18:06:38.123Z,100383.16
2023-01-29T18:11:41.836Z,100393.63
2023-01-29T18:16:45.298Z,100395.09
2023-01-29T18:21:48.596Z,100387.94
2023-01-29T18:26:51.609Z,100382.72
2023-01-29T18:31:54.277Z,100368.38
2023-01-29T18:36:57.144Z,100381.13
2023-01-29T18:42:00.012Z,100380.25
2023-01-29T18:47:02.707Z,100400.53
2023-01-29T18:52:06.529Z,100389.75
2023-01-29T18:57:14.308Z,100398.38
2023-01-29T19:02:19.555Z,100398.97
2023-01-29T19:07:22.293Z,100417.19
2023-01-29T19:12:25.053Z,100385.38
2023-01-29T19:17:27.958Z,100415.16
2023-01-29T19:22:31.971Z,100416.19
2023-01-29T19:27:34.771Z,100430.06
2023-01-29T19:32:37.550Z,100428.94
2023-01-29T19:37:40.558Z,100410.81
2023-01-29T19:42:43.293Z,100410.56
2023-01-29T19:47:46.325Z,100406.03
2023-01-29T19:52:51.511Z,100414.66
2023-01-29T19:57:55.115Z,100432.03
2023-01-29T20:02:57.840Z,100439.03
2023-01-29T20:08:00.560Z,100432.59
2023-01-29T20:13:03.253Z,100436.56
2023-01-29T20:18:12.127Z,100419.53
2023-01-29T20:23:22.298Z,100427.84
2023-01-29T20:28:31.004Z,100436.31
2023-01-29T20:33:35.076Z,100428.72
2023-01-29T20:38:37.966Z,100428.75
2023-01-29T20:43:41.237Z,100424.09
2023-01-29T20:48:44.139Z,100417.06
2023-01-29T20:53:48.429Z,100426.56
2023-01-29T20:58:51.429Z,100407.16
2023-01-29T21:03:54.136Z,100395.47
2023-01-29T21:08:56.816Z,100393.44
2023-01-29T21:13:59.896Z,100385.97
2023-01-29T21:19:03.687Z,100373.16
2023-01-29T21:24:06.852Z,100369.63
2023-01-29T21:29:11.546Z,100362.44
2023-01-29T21:34:14.304Z,100365.06
2023-01-29T21:39:17.047Z,100360.38
2023-01-29T21:44:19.761Z,100358.50
2023-01-29T21:49:23.058Z,100379.94
2023-01-29T21:54:31.277Z,100361.81
2023-01-29T21:59:34.109Z,100367.97
2023-01-29T22:04:36.737Z,100345.47
2023-01-29T22:09:39.672Z,100353.59
2023-01-29T22:14:42.460Z,100353.00
2023-01-29T22:19:45.183Z,100348.75
2023-01-29T22:24:47.988Z,100367.00
2023-01-29T22:29:50.739Z,100315.81
2023-01-29T22:34:53.452Z,100346.53
2023-01-29T22:39:56.132Z,100350.47
2023-01-29T22:44:58.981Z,100341.81
2023-01-29T22:50:01.717Z,100340.91
2023-01-29T22:55:13.226Z,100357.56
2023-01-29T23:00:16.755Z,100336.50
2023-01-29T23:05:19.746Z,100363.06
2023-01-29T23:10:22.450Z,100350.94
2023-01-29T23:15:25.263Z,100358.09
2023-01-29T23:20:27.979Z,100342.44
2023-01-29T23:25:49.047Z,100360.25
2023-01-29T23:30:52.449Z,100344.03
2023-01-29T23:35:55.468Z,100361.75
2023-01-29T23:40:58.589Z,100358.69
2023-01-29T23:46:01.570Z,100343.44
2023-01-29T23:51:04.387Z,100327.09
2023-01-29T23:56:07.843Z,100321.28
